Aérodrome :
LOGIN :

S'inscrire | Disclaimer

   EN    FR    IT 

 










Légende :    VFR   VFR Marginal   IFR   IFR Intensif   IFR Très Intensif
Visi : 
Plafond : 
>= 8 km
>= 3000ft
5 à 8 km
1000 à 3000 ft
1500m à 5 km
500 à 1000 ft
800 à 1500m
200 à 500 ft
< 800m
< 200 ft
Symboles :   Orages  Brouillard  Fortes neiges  Fortes précipitations  Vent > 20 kt
SIGMETs :   Divers  Orages  Givrage  Turbulence  Onde Orograph.  Cendres Volcan.







- Altitude de l'aérodrome : 741 ft
- Code IATA : PED


LKPD - Pardubice AB

DERNIER METAR :
  • 162300Z 23002KT CAVOK 16/15 Q1022 RMK BLU

METARs EXPIRÉS :
  • 162200Z 24003KT CAVOK 17/17 Q1022 RMK BLU
  • 162100Z 18003KT CAVOK 17/17 Q1022 RMK BLU

TAF TAF LKPD
Valide du 16 à 18h jusqu'au 17 à 18h UTC


161700Z 1618/1718 29004KT CAVOK
PROB30
TEMPO 1618/1620 29010KT 6000 SHRA SCT030TCU
TEMPO 1623/1706 VRB02KT 3000 MIFG BR
PROB40
TEMPO 1702/1705 0600 FG VV001
BECMG 1705/1707 7000 SCT015
BECMG 1707/1711 30005KT CAVOK
Pas de NOTAMs connus pour ce terrain.



MET'MAP, la Météo Aéronautique d'un coup d'oeil ! - Copyright ORBIFLY Décembre 2007 - Disclaimer

ORBIFLY MET'MAP TEAM :

Programmation & Développement : Alexandra Zaïnal
Conception & Développement : Baudouin d'Aumeries
Co-Programmation & Développement : Marc-Olivier Méhu
Soutien technique & logistique : Manuel Goepfert

Contact : metmap@orbifly.com




SOURCES & CREDITS :

   NOAA